Estación Meteorológica Peña el Pijo (Robertgarden) [ 10/16/18 03:51:42 CEST ]

Fecha Hora Presion(HPa) Temp (°C) Humedad % Rocio (°C) Viento ( m/s) Direccion Lluvia 1Hora(mm) Lluvia 24H(mm) LLuvia Total(mm)
2018-Aug-17 01:01:50 1011.000 17.6 67 11.4         289.04
2018-Aug-17 02:01:40 1010.800 16.9 69 11.2         289.04
2018-Aug-17 03:01:18 1010.800 15.9 72 10.9         289.04
2018-Aug-17 04:01:22 1010.800 15.9 74 11.3         289.04
2018-Aug-17 05:01:19 1010.500 16.4 72 11.4         289.04
2018-Aug-17 06:01:20 1011.000 15.8 73 11.0         289.04
2018-Aug-17 07:01:40 1011.300 14.8 76 10.6         289.04
2018-Aug-17 08:01:52 1011.600 13.9 79 10.3         289.04
2018-Aug-17 09:01:44 1011.600 15.0 78 11.2         289.04
2018-Aug-17 10:01:59 1011.300 20.9 66 14.3         289.04
2018-Aug-17 11:01:57 1011.400 26.8 47 14.5         289.04
2018-Aug-17 12:02:04 1011.400 30.4 36 13.6         289.04
2018-Aug-17 13:01:51 1011.000 30.3 33 12.2         289.04
2018-Aug-17 14:01:41 1011.500 22.9 54 13.0     1.03 1.03 290.08
2018-Aug-17 15:01:41 1011.400 25.1 54 15.1     0.51 1.55 290.59
2018-Aug-17 16:01:54 1010.700 27.9 46 15.1 1.0 WNW   1.55 290.59
2018-Aug-17 17:01:49 1011.000 24.4 49 13.0       1.55 290.59
2018-Aug-17 18:01:55 1011.400 22.6 55 13.0       1.55 290.59
2018-Aug-17 19:01:43 1010.400 21.5 62 13.9       1.55 290.59
2018-Aug-17 20:01:41 1010.700 21.5 60 13.4       1.55 290.59
2018-Aug-17 21:01:48 1011.000 19.6 65 12.8       1.55 290.59
2018-Aug-17 22:01:37 1011.600 17.6 73 12.7       1.55 290.59
2018-Aug-17 23:01:45 1011.900 16.4 77 12.4       1.55 290.59

Temperatura Máxima:30°    Temperatura Mínima:13°
Presión Máxima:1011.900 Hpa    Presión Mínima:1010.400 Hpa


Volver